Time;durP1;ratioP1;P1;durP2;ratioP2;P2;SDS_P1;SDS_P2;PMS_P1;PMS_P2;Temp;Humidity;BMP_temperature;BMP_pressure;BME280_temperature;BME280_humidity;BME280_pressure;Samples;Min_cycle;Max_cycle;Signal;HPM_P1;HPM_P2
2021/09/27 00:02:07;;;;;;;11.35;9.32;;;;;;;;;;5033230;28;20082;-84
2021/09/27 00:04:33;;;;;;;11.32;8.95;;;;;;;;;;5025687;28;20025;-85
2021/09/27 00:06:59;;;;;;;10.40;8.77;;;;;;;;;;5033513;28;20052;-85
2021/09/27 00:09:32;;;;;;;12.55;9.30;;;;;;;;;;5038218;28;20036;-83
2021/09/27 00:11:59;;;;;;;10.70;8.80;;;;;;;;;;5030116;28;20025;-82
2021/09/27 00:14:24;;;;;;;11.40;8.60;;;;;;;;;;5043317;28;20104;-82
2021/09/27 00:16:49;;;;;;;11.23;8.70;;;;;;;;;;5010118;28;20803;-85
2021/09/27 00:19:15;;;;;;;11.23;8.57;;;;;;;;;;5021932;28;20067;-83
2021/09/27 00:21:40;;;;;;;10.15;8.30;;;;;;;;;;5027598;28;20037;-83
2021/09/27 00:24:06;;;;;;;10.23;7.90;;;;;;;;;;5035219;28;20029;-85
2021/09/27 00:26:32;;;;;;;10.75;8.30;;;;;;;;;;5035168;28;20033;-82
2021/09/27 00:28:57;;;;;;;9.32;8.32;;;;;;;;;;5055196;28;20025;-82
2021/09/27 00:31:23;;;;;;;9.50;8.35;;;;;;;;;;5016331;28;20036;-84
2021/09/27 00:33:49;;;;;;;9.73;7.95;;;;;;;;;;5012520;28;20124;-84
2021/09/27 00:36:16;;;;;;;14.38;9.05;;;;;;;;;;5040638;28;20112;-84
2021/09/27 00:38:42;;;;;;;10.40;8.18;;;;;;;;;;5035178;28;20051;-85
2021/09/27 00:41:12;;;;;;;11.73;8.40;;;;;;;;;;5023573;28;20029;-82
2021/09/27 00:43:39;;;;;;;11.73;8.23;;;;;;;;;;5031211;28;20031;-83
2021/09/27 00:46:12;;;;;;;11.13;8.27;;;;;;;;;;5033072;28;20043;-85
2021/09/27 00:48:38;;;;;;;15.07;8.90;;;;;;;;;;5028321;28;20025;-81
2021/09/27 00:51:22;;;;;;;9.82;8.25;;;;;;;;;;5037810;28;20044;-84
2021/09/27 00:54:00;;;;;;;11.43;8.40;;;;;;;;;;5038145;28;20496;-84
2021/09/27 00:56:30;;;;;;;11.63;8.32;;;;;;;;;;5047512;28;20053;-85
2021/09/27 00:58:58;;;;;;;10.95;8.77;;;;;;;;;;5034107;28;20056;-84
2021/09/27 01:01:24;;;;;;;13.48;8.30;;;;;;;;;;5032982;28;20512;-82
2021/09/27 01:03:51;;;;;;;11.70;8.27;;;;;;;;;;5045765;28;20021;-82
2021/09/27 01:06:43;;;;;;;12.00;8.43;;;;;;;;;;5022750;28;20095;-84
2021/09/27 01:09:42;;;;;;;10.10;8.32;;;;;;;;;;4997614;28;20037;-82
2021/09/27 01:12:25;;;;;;;10.88;8.88;;;;;;;;;;5035428;28;21767;-83
2021/09/27 01:15:06;;;;;;;11.00;9.10;;;;;;;;;;5025390;28;20171;-85
2021/09/27 01:17:59;;;;;;;10.93;8.57;;;;;;;;;;5033081;28;20041;-83
2021/09/27 01:20:42;;;;;;;10.20;8.45;;;;;;;;;;5031886;28;20412;-84
2021/09/27 01:23:24;;;;;;;10.02;8.50;;;;;;;;;;5029574;28;20029;-84
2021/09/27 01:26:14;;;;;;;10.52;8.60;;;;;;;;;;5031857;28;20365;-84
2021/09/27 01:28:42;;;;;;;11.30;8.68;;;;;;;;;;5052826;28;20133;-82
2021/09/27 01:31:07;;;;;;;11.80;8.90;;;;;;;;;;5055556;28;20030;-81
2021/09/27 01:33:36;;;;;;;10.77;8.95;;;;;;;;;;5037131;28;20025;-81
2021/09/27 01:36:12;;;;;;;12.48;8.93;;;;;;;;;;5041956;28;20125;-85
2021/09/27 01:38:59;;;;;;;12.25;9.02;;;;;;;;;;5054539;28;20107;-83
2021/09/27 01:42:02;;;;;;;11.15;8.40;;;;;;;;;;5049059;28;20748;-84
2021/09/27 01:44:48;;;;;;;11.70;8.70;;;;;;;;;;5036648;28;20384;-84
2021/09/27 01:47:36;;;;;;;10.90;9.02;;;;;;;;;;5036832;28;20416;-84
2021/09/27 01:50:25;;;;;;;11.43;8.75;;;;;;;;;;5055445;28;20025;-82
2021/09/27 01:52:57;;;;;;;12.32;8.73;;;;;;;;;;5034540;28;20051;-83
2021/09/27 01:55:33;;;;;;;11.30;8.15;;;;;;;;;;5049053;28;20086;-84
2021/09/27 01:58:18;;;;;;;13.05;8.70;;;;;;;;;;5026739;28;20028;-84
2021/09/27 02:00:53;;;;;;;11.38;8.23;;;;;;;;;;5034205;28;20095;-85
2021/09/27 02:03:43;;;;;;;11.35;9.05;;;;;;;;;;5051273;28;20118;-83
2021/09/27 02:06:14;;;;;;;10.88;8.45;;;;;;;;;;5039149;28;20022;-84
2021/09/27 02:08:48;;;;;;;12.52;9.13;;;;;;;;;;5049260;28;20388;-82
2021/09/27 02:11:25;;;;;;;12.20;8.82;;;;;;;;;;5035269;28;20044;-83
2021/09/27 02:14:16;;;;;;;11.32;8.75;;;;;;;;;;5032414;28;20033;-82
2021/09/27 02:16:59;;;;;;;10.82;8.90;;;;;;;;;;5044625;28;20029;-82
2021/09/27 02:20:16;;;;;;;10.85;7.97;;;;;;;;;;5061882;28;20025;-82
2021/09/27 02:22:47;;;;;;;12.70;8.80;;;;;;;;;;5021593;28;20033;-82
2021/09/27 02:25:31;;;;;;;11.07;8.52;;;;;;;;;;5053666;28;20507;-82
2021/09/27 02:28:00;;;;;;;11.82;8.57;;;;;;;;;;5037618;28;20133;-84
2021/09/27 02:30:48;;;;;;;12.25;8.75;;;;;;;;;;5047403;28;20066;-84
2021/09/27 02:33:16;;;;;;;12.05;9.07;;;;;;;;;;5056746;28;20021;-85
2021/09/27 02:35:53;;;;;;;14.13;8.43;;;;;;;;;;5037209;28;20147;-82
2021/09/27 02:38:44;;;;;;;11.57;8.48;;;;;;;;;;5058045;28;20052;-84
2021/09/27 02:41:24;;;;;;;11.05;8.65;;;;;;;;;;5049313;28;20044;-82
2021/09/27 02:43:50;;;;;;;10.85;8.73;;;;;;;;;;5034569;28;20029;-82
2021/09/27 02:46:16;;;;;;;11.75;8.93;;;;;;;;;;5037659;28;20056;-84
2021/09/27 02:48:53;;;;;;;13.68;8.32;;;;;;;;;;5043383;28;20103;-82
2021/09/27 02:51:18;;;;;;;11.60;8.02;;;;;;;;;;5051205;28;20034;-84
2021/09/27 02:53:43;;;;;;;11.50;7.85;;;;;;;;;;5021680;28;20488;-82
2021/09/27 02:56:30;;;;;;;12.18;8.60;;;;;;;;;;5023526;28;20052;-84
2021/09/27 02:59:17;;;;;;;11.82;8.15;;;;;;;;;;5057522;28;20021;-83
2021/09/27 03:01:58;;;;;;;13.32;9.00;;;;;;;;;;5037511;28;20029;-82
2021/09/27 03:05:02;;;;;;;10.77;8.60;;;;;;;;;;5041549;28;20024;-84
2021/09/27 03:07:49;;;;;;;12.55;9.30;;;;;;;;;;5025605;28;20028;-81
2021/09/27 03:10:29;;;;;;;12.55;9.25;;;;;;;;;;5040402;28;20443;-83
2021/09/27 03:13:13;;;;;;;14.10;8.40;;;;;;;;;;5043840;28;20028;-82
2021/09/27 03:15:57;;;;;;;13.13;8.98;;;;;;;;;;5027727;28;20064;-84
2021/09/27 03:18:32;;;;;;;15.20;9.00;;;;;;;;;;5035657;28;20025;-82
2021/09/27 03:21:20;;;;;;;12.05;8.63;;;;;;;;;;5028189;28;20025;-85
2021/09/27 03:24:07;;;;;;;13.68;9.82;;;;;;;;;;5046609;28;20027;-81
2021/09/27 03:26:38;;;;;;;12.98;8.82;;;;;;;;;;5032149;28;20024;-82
2021/09/27 03:29:25;;;;;;;12.50;8.25;;;;;;;;;;5028508;28;20025;-84
2021/09/27 03:31:51;;;;;;;12.52;8.52;;;;;;;;;;5035861;28;20110;-84
2021/09/27 03:34:47;;;;;;;12.00;9.18;;;;;;;;;;5028914;28;20128;-83
2021/09/27 03:37:43;;;;;;;13.25;8.65;;;;;;;;;;5034221;28;20408;-82
2021/09/27 03:40:27;;;;;;;17.33;9.57;;;;;;;;;;5030557;28;20060;-81
2021/09/27 03:43:25;;;;;;;13.98;8.95;;;;;;;;;;5032602;28;20082;-82
2021/09/27 03:46:15;;;;;;;12.40;9.73;;;;;;;;;;5020592;28;20116;-82
2021/09/27 03:48:44;;;;;;;12.15;8.70;;;;;;;;;;5029692;28;20034;-82
2021/09/27 03:51:19;;;;;;;13.52;9.35;;;;;;;;;;5031547;28;20063;-82
2021/09/27 03:53:59;;;;;;;13.80;8.85;;;;;;;;;;5034929;28;20048;-82
2021/09/27 03:56:39;;;;;;;14.05;9.13;;;;;;;;;;5048757;28;20072;-82
2021/09/27 03:59:13;;;;;;;13.55;9.07;;;;;;;;;;5026692;28;20107;-82
2021/09/27 04:01:48;;;;;;;14.93;9.07;;;;;;;;;;5033806;28;20035;-82
2021/09/27 04:04:23;;;;;;;15.68;9.43;;;;;;;;;;5033007;28;20033;-84
2021/09/27 04:07:08;;;;;;;12.95;8.65;;;;;;;;;;5055305;28;20075;-81
2021/09/27 04:10:15;;;;;;;12.77;8.68;;;;;;;;;;5033697;28;20032;-81
2021/09/27 04:12:48;;;;;;;12.68;8.52;;;;;;;;;;5010470;28;20037;-84
2021/09/27 04:15:16;;;;;;;;;;;;;;;;;;5063653;28;20027;-84
2021/09/27 04:17:59;;;;;;;14.23;9.02;;;;;;;;;;5040022;28;19999;-81
2021/09/27 04:20:55;;;;;;;;;;;;;;;;;;5040992;28;20052;-82
2021/09/27 04:23:34;;;;;;;12.38;8.55;;;;;;;;;;5031407;28;19919;-83
2021/09/27 04:26:17;;;;;;;10.57;8.43;;;;;;;;;;5027637;28;20522;-84
2021/09/27 04:29:07;;;;;;;11.93;8.50;;;;;;;;;;5035637;28;20032;-81
2021/09/27 04:31:51;;;;;;;12.82;8.48;;;;;;;;;;5036333;28;20033;-83
2021/09/27 04:35:27;;;;;;;13.05;8.32;;;;;;;;;;5057175;28;20037;-81
2021/09/27 04:37:54;;;;;;;13.30;8.20;;;;;;;;;;4980565;28;20049;-82
2021/09/27 04:40:43;;;;;;;12.57;8.15;;;;;;;;;;4964016;28;20577;-83
2021/09/27 04:43:44;;;;;;;10.90;8.30;;;;;;;;;;5007786;28;20114;-83
2021/09/27 04:46:18;;;;;;;13.88;9.13;;;;;;;;;;5033628;28;20391;-82
2021/09/27 04:49:01;;;;;;;13.35;8.65;;;;;;;;;;5036659;28;20029;-84
2021/09/27 04:51:52;;;;;;;10.77;8.27;;;;;;;;;;5025011;28;20031;-83
2021/09/27 04:54:41;;;;;;;12.25;8.82;;;;;;;;;;5044775;28;20032;-82
2021/09/27 04:57:39;;;;;;;12.35;9.18;;;;;;;;;;5028798;28;20048;-82
2021/09/27 05:00:43;;;;;;;11.80;8.20;;;;;;;;;;5001872;28;20124;-84
2021/09/27 05:03:27;;;;;;;12.82;9.63;;;;;;;;;;5048154;28;20495;-83
2021/09/27 05:05:52;;;;;;;13.20;8.85;;;;;;;;;;5036875;28;20041;-82
2021/09/27 05:08:39;;;;;;;12.60;8.82;;;;;;;;;;5034203;28;20033;-85
2021/09/27 05:11:29;;;;;;;12.23;8.95;;;;;;;;;;5029761;28;20029;-84
2021/09/27 05:14:36;;;;;;;15.13;9.27;;;;;;;;;;5036835;28;20096;-83
2021/09/27 05:17:32;;;;;;;14.40;8.90;;;;;;;;;;5041466;28;20033;-83
2021/09/27 05:20:00;;;;;;;15.05;9.27;;;;;;;;;;5055317;28;20044;-83
2021/09/27 05:22:51;;;;;;;14.32;8.98;;;;;;;;;;5046801;28;20508;-82
2021/09/27 05:25:47;;;;;;;16.40;9.65;;;;;;;;;;5030911;28;20033;-84
2021/09/27 05:28:24;;;;;;;11.98;9.27;;;;;;;;;;5038992;28;20063;-83
2021/09/27 05:31:20;;;;;;;26.88;10.07;;;;;;;;;;5025203;28;20075;-83
2021/09/27 05:34:04;;;;;;;14.05;9.75;;;;;;;;;;5051739;28;20024;-85
2021/09/27 05:36:33;;;;;;;16.67;9.38;;;;;;;;;;5029333;28;20145;-83
2021/09/27 05:39:44;;;;;;;17.23;10.18;;;;;;;;;;5029847;28;20036;-82
2021/09/27 05:42:44;;;;;;;12.95;9.85;;;;;;;;;;5032022;28;20026;-83
2021/09/27 05:45:19;;;;;;;13.07;9.23;;;;;;;;;;5033135;28;20032;-82
2021/09/27 05:48:03;;;;;;;14.32;9.25;;;;;;;;;;5045532;28;20033;-83
2021/09/27 05:51:11;;;;;;;14.43;9.93;;;;;;;;;;5032553;28;20064;-82
2021/09/27 05:53:54;;;;;;;12.27;9.15;;;;;;;;;;5032819;28;20025;-82
2021/09/27 05:56:36;;;;;;;11.23;9.50;;;;;;;;;;5047420;28;20068;-85
2021/09/27 05:59:25;;;;;;;12.63;9.35;;;;;;;;;;5028186;28;20479;-85
2021/09/27 06:01:58;;;;;;;14.32;9.68;;;;;;;;;;5055554;28;20021;-85
2021/09/27 06:04:24;;;;;;;;;;;;;;;;;;5040921;28;20025;-82
2021/09/27 06:06:58;;;;;;;14.52;9.57;;;;;;;;;;5038378;28;20371;-85
2021/09/27 06:10:01;;;;;;;13.35;8.93;;;;;;;;;;5035704;28;20020;-85
2021/09/27 06:13:00;;;;;;;13.75;9.32;;;;;;;;;;5026945;28;20033;-85
2021/09/27 06:15:45;;;;;;;13.20;9.55;;;;;;;;;;5058053;28;20037;-82
2021/09/27 06:18:25;;;;;;;14.40;9.57;;;;;;;;;;5053125;28;20029;-85
2021/09/27 06:21:06;;;;;;;15.90;9.73;;;;;;;;;;5058747;28;20034;-82
2021/09/27 06:24:13;;;;;;;15.75;9.30;;;;;;;;;;5031635;28;20033;-85
2021/09/27 06:26:47;;;;;;;14.40;9.65;;;;;;;;;;5034916;28;20411;-84
2021/09/27 06:29:43;;;;;;;12.23;10.02;;;;;;;;;;5048368;28;20031;-83
2021/09/27 06:32:28;;;;;;;16.88;10.15;;;;;;;;;;5042523;28;20131;-85
2021/09/27 06:34:59;;;;;;;15.70;9.98;;;;;;;;;;5057341;28;20028;-84
2021/09/27 06:37:28;;;;;;;14.05;9.82;;;;;;;;;;5035181;28;20024;-84
2021/09/27 06:39:54;;;;;;;14.18;9.93;;;;;;;;;;5034292;28;20166;-84
2021/09/27 06:42:20;;;;;;;13.50;9.52;;;;;;;;;;5025813;28;20362;-85
2021/09/27 06:44:47;;;;;;;15.30;10.32;;;;;;;;;;5022768;28;20078;-84
2021/09/27 06:47:14;;;;;;;14.23;10.82;;;;;;;;;;5032965;28;20021;-85
2021/09/27 06:49:40;;;;;;;14.88;10.35;;;;;;;;;;5026191;28;20485;-84
2021/09/27 06:52:05;;;;;;;14.48;11.00;;;;;;;;;;5044278;28;20111;-85
2021/09/27 06:54:31;;;;;;;13.95;10.88;;;;;;;;;;5013542;28;20369;-84
2021/09/27 06:56:56;;;;;;;14.55;10.68;;;;;;;;;;5037205;28;20045;-83
2021/09/27 06:59:22;;;;;;;11.80;10.25;;;;;;;;;;5023040;28;20097;-83
2021/09/27 07:01:50;;;;;;;13.68;10.45;;;;;;;;;;5039479;28;20040;-84
2021/09/27 07:04:16;;;;;;;18.52;11.75;;;;;;;;;;5043963;28;20020;-85
2021/09/27 07:06:42;;;;;;;16.20;10.60;;;;;;;;;;5036559;28;20040;-84
2021/09/27 07:09:07;;;;;;;15.13;11.32;;;;;;;;;;5024313;28;20396;-84
2021/09/27 07:11:32;;;;;;;13.60;11.20;;;;;;;;;;5034266;28;20043;-84
2021/09/27 07:13:58;;;;;;;15.30;11.52;;;;;;;;;;5019153;28;20112;-84
2021/09/27 07:16:23;;;;;;;15.15;10.95;;;;;;;;;;5023369;28;20184;-84
2021/09/27 07:18:49;;;;;;;15.82;11.68;;;;;;;;;;5028781;28;20484;-82
2021/09/27 07:21:15;;;;;;;14.98;11.23;;;;;;;;;;5019578;28;20056;-84
2021/09/27 07:23:41;;;;;;;14.10;10.57;;;;;;;;;;5040418;28;20049;-84
2021/09/27 07:26:14;;;;;;;13.70;10.93;;;;;;;;;;5037175;28;20035;-83
2021/09/27 07:28:40;;;;;;;13.93;11.00;;;;;;;;;;5036817;28;20028;-84
2021/09/27 07:31:06;;;;;;;15.20;11.57;;;;;;;;;;5021892;28;20033;-82
2021/09/27 07:33:34;;;;;;;17.05;10.82;;;;;;;;;;5018977;28;20029;-84
2021/09/27 07:36:00;;;;;;;15.30;11.05;;;;;;;;;;5049749;28;20029;-82
2021/09/27 07:38:26;;;;;;;14.02;10.93;;;;;;;;;;5043307;28;20029;-83
2021/09/27 07:40:53;;;;;;;13.82;10.95;;;;;;;;;;5021663;28;20028;-82
2021/09/27 07:43:19;;;;;;;12.93;10.93;;;;;;;;;;5044177;28;20018;-84
2021/09/27 07:45:45;;;;;;;16.42;10.95;;;;;;;;;;5021263;28;20067;-83
2021/09/27 07:48:16;;;;;;;13.40;10.57;;;;;;;;;;5051412;28;20487;-84
2021/09/27 07:50:43;;;;;;;15.23;11.20;;;;;;;;;;5037264;28;20058;-83
2021/09/27 07:53:09;;;;;;;15.23;10.68;;;;;;;;;;5030069;28;20029;-84
2021/09/27 07:55:35;;;;;;;14.32;10.45;;;;;;;;;;5002863;28;20021;-82
2021/09/27 07:58:00;;;;;;;14.65;11.25;;;;;;;;;;5036591;28;20045;-85
2021/09/27 08:00:28;;;;;;;14.20;10.52;;;;;;;;;;5022546;28;20017;-85
2021/09/27 08:02:53;;;;;;;15.65;11.40;;;;;;;;;;5019336;28;20510;-85
2021/09/27 08:05:23;;;;;;;13.68;10.88;;;;;;;;;;5017821;28;20029;-85
2021/09/27 08:07:48;;;;;;;12.82;11.02;;;;;;;;;;5030883;28;20127;-85
2021/09/27 08:10:16;;;;;;;15.15;10.40;;;;;;;;;;5039873;28;20060;-84
2021/09/27 08:12:42;;;;;;;14.37;10.33;;;;;;;;;;5054045;28;20032;-85
2021/09/27 08:15:17;;;;;;;15.90;10.43;;;;;;;;;;5039508;28;20049;-85
2021/09/27 08:17:45;;;;;;;13.95;10.15;;;;;;;;;;5037787;28;20063;-85
2021/09/27 08:20:12;;;;;;;15.55;10.18;;;;;;;;;;5061601;28;20013;-84
2021/09/27 08:22:38;;;;;;;13.15;9.27;;;;;;;;;;5016241;28;20541;-85
2021/09/27 08:25:05;;;;;;;13.75;9.63;;;;;;;;;;5018640;28;20060;-85
2021/09/27 08:27:31;;;;;;;12.82;9.25;;;;;;;;;;5018682;28;20377;-85
2021/09/27 08:29:56;;;;;;;12.77;9.15;;;;;;;;;;5029579;28;20123;-85
2021/09/27 08:32:22;;;;;;;12.05;8.65;;;;;;;;;;5047074;28;20029;-84
2021/09/27 08:34:51;;;;;;;11.20;8.85;;;;;;;;;;5034776;28;20032;-85
2021/09/27 08:37:18;;;;;;;12.52;8.70;;;;;;;;;;5004759;28;20091;-85
2021/09/27 08:39:46;;;;;;;11.68;9.00;;;;;;;;;;5018901;28;20112;-85
2021/09/27 08:42:20;;;;;;;11.13;8.27;;;;;;;;;;5054415;28;20079;-84
2021/09/27 08:44:51;;;;;;;10.00;8.30;;;;;;;;;;5026980;28;20112;-85
2021/09/27 08:47:35;;;;;;;13.75;8.50;;;;;;;;;;5033163;28;20030;-85
2021/09/27 08:50:07;;;;;;;11.80;9.00;;;;;;;;;;5059140;28;20021;-83
2021/09/27 08:52:37;;;;;;;10.38;8.10;;;;;;;;;;5048573;28;20033;-85
2021/09/27 08:55:09;;;;;;;12.50;8.13;;;;;;;;;;5028185;28;20499;-82
2021/09/27 08:57:43;;;;;;;11.30;8.55;;;;;;;;;;5036962;28;20064;-82
2021/09/27 09:00:15;;;;;;;12.50;8.05;;;;;;;;;;5057914;28;20024;-84
2021/09/27 09:03:00;;;;;;;10.73;7.65;;;;;;;;;;5025677;28;20040;-84
2021/09/27 09:05:38;;;;;;;9.13;6.90;;;;;;;;;;5047341;28;20048;-84
2021/09/27 09:08:22;;;;;;;10.77;7.38;;;;;;;;;;5042096;28;20369;-84
2021/09/27 09:11:22;;;;;;;11.23;8.30;;;;;;;;;;5030536;28;20021;-84
2021/09/27 09:13:55;;;;;;;8.73;7.22;;;;;;;;;;5056042;28;20053;-84
2021/09/27 09:16:26;;;;;;;9.30;7.43;;;;;;;;;;5039047;28;20041;-83
2021/09/27 09:18:56;;;;;;;11.10;6.18;;;;;;;;;;5044546;28;20124;-84
2021/09/27 09:21:42;;;;;;;11.40;6.97;;;;;;;;;;5039453;28;20730;-84
2021/09/27 09:24:31;;;;;;;10.63;6.88;;;;;;;;;;5036320;28;20056;-82
2021/09/27 09:27:00;;;;;;;8.85;6.60;;;;;;;;;;5070290;28;20494;-83
2021/09/27 09:29:30;;;;;;;12.68;6.90;;;;;;;;;;5039536;28;20029;-82
2021/09/27 09:32:00;;;;;;;10.80;6.50;;;;;;;;;;5039783;28;20525;-84
2021/09/27 09:34:32;;;;;;;9.27;6.78;;;;;;;;;;5041377;28;20029;-83
2021/09/27 09:37:07;;;;;;;9.77;6.22;;;;;;;;;;5045409;28;20024;-84
2021/09/27 09:39:38;;;;;;;9.90;6.38;;;;;;;;;;5042104;28;20397;-83
2021/09/27 09:42:32;;;;;;;7.65;6.40;;;;;;;;;;5068064;28;20444;-84
2021/09/27 09:45:11;;;;;;;9.57;6.82;;;;;;;;;;5054365;28;20052;-84
2021/09/27 09:47:36;;;;;;;7.72;6.28;;;;;;;;;;5036937;28;20539;-84
2021/09/27 09:50:26;;;;;;;7.40;5.80;;;;;;;;;;5007870;28;20168;-84
2021/09/27 09:52:54;;;;;;;9.60;6.15;;;;;;;;;;5034424;28;20551;-84
2021/09/27 09:55:40;;;;;;;9.20;6.57;;;;;;;;;;5039827;28;20033;-83
2021/09/27 09:58:10;;;;;;;9.68;6.57;;;;;;;;;;5038938;28;20041;-81
2021/09/27 10:00:57;;;;;;;7.20;6.20;;;;;;;;;;5044654;28;20070;-82
2021/09/27 10:03:29;;;;;;;8.95;6.32;;;;;;;;;;5030694;28;20090;-84
2021/09/27 10:06:00;;;;;;;9.10;6.00;;;;;;;;;;5040018;28;20025;-84
2021/09/27 10:08:26;;;;;;;8.38;5.88;;;;;;;;;;5040254;28;20035;-84
2021/09/27 10:10:54;;;;;;;8.68;6.05;;;;;;;;;;5023270;28;20040;-82
2021/09/27 10:13:35;;;;;;;9.13;5.75;;;;;;;;;;5040367;28;20395;-83
2021/09/27 10:16:05;;;;;;;9.20;6.10;;;;;;;;;;5055798;28;20106;-84
2021/09/27 10:18:34;;;;;;;7.43;5.50;;;;;;;;;;5037783;28;20059;-83
2021/09/27 10:21:18;;;;;;;7.55;5.40;;;;;;;;;;5039571;28;20025;-84
2021/09/27 10:23:49;;;;;;;10.18;5.47;;;;;;;;;;5033612;28;20052;-83
2021/09/27 10:26:21;;;;;;;7.63;5.28;;;;;;;;;;5036660;28;20032;-84
2021/09/27 10:28:50;;;;;;;6.85;4.60;;;;;;;;;;5030328;28;20065;-84
2021/09/27 10:31:17;;;;;;;8.07;5.05;;;;;;;;;;5039992;28;20564;-84
2021/09/27 10:33:49;;;;;;;7.07;4.80;;;;;;;;;;5030144;28;20040;-83
2021/09/27 10:36:52;;;;;;;9.20;5.15;;;;;;;;;;5037506;28;20036;-84
2021/09/27 10:39:19;;;;;;;7.88;4.90;;;;;;;;;;5027419;28;20029;-83
2021/09/27 10:42:00;;;;;;;7.63;4.60;;;;;;;;;;5048517;28;20028;-82
2021/09/27 10:44:32;;;;;;;8.43;4.53;;;;;;;;;;5058120;28;20028;-84
2021/09/27 10:47:16;;;;;;;7.85;4.50;;;;;;;;;;5036315;28;20435;-83
2021/09/27 10:49:53;;;;;;;5.40;4.30;;;;;;;;;;5056399;28;20040;-84
2021/09/27 10:52:22;;;;;;;6.45;3.95;;;;;;;;;;5044042;28;20032;-84
2021/09/27 10:55:11;;;;;;;6.90;4.10;;;;;;;;;;5036318;28;20021;-83
2021/09/27 10:57:57;;;;;;;6.85;3.60;;;;;;;;;;5027897;28;20101;-84
2021/09/27 11:00:50;;;;;;;5.13;3.63;;;;;;;;;;5064874;28;20105;-84
2021/09/27 11:03:30;;;;;;;5.25;4.00;;;;;;;;;;5039728;28;20025;-84
2021/09/27 11:06:17;;;;;;;4.97;3.92;;;;;;;;;;5035756;28;20712;-84
2021/09/27 11:08:45;;;;;;;6.05;3.50;;;;;;;;;;5043308;28;20393;-82
2021/09/27 11:11:29;;;;;;;5.93;3.58;;;;;;;;;;5032970;28;20025;-84
2021/09/27 11:14:15;;;;;;;5.38;3.80;;;;;;;;;;5028166;28;20079;-84
2021/09/27 11:16:43;;;;;;;7.03;3.80;;;;;;;;;;5049068;28;20432;-84
2021/09/27 11:19:33;;;;;;;5.10;3.50;;;;;;;;;;5053454;28;20025;-83
2021/09/27 11:22:14;;;;;;;5.95;3.42;;;;;;;;;;5031761;28;20472;-83
2021/09/27 11:24:42;;;;;;;8.25;3.72;;;;;;;;;;5034428;28;20024;-84
2021/09/27 11:27:07;;;;;;;7.55;3.50;;;;;;;;;;5051650;28;20353;-84
2021/09/27 11:29:36;;;;;;;6.07;3.40;;;;;;;;;;5058872;28;20024;-83
2021/09/27 11:32:25;;;;;;;6.60;3.63;;;;;;;;;;5029842;28;20092;-83
2021/09/27 11:35:02;;;;;;;6.90;3.47;;;;;;;;;;5042621;28;20020;-84
2021/09/27 11:37:48;;;;;;;5.22;3.22;;;;;;;;;;5031694;28;20029;-84
2021/09/27 11:40:32;;;;;;;5.00;3.13;;;;;;;;;;5005299;28;20040;-84
2021/09/27 11:43:34;;;;;;;7.05;3.53;;;;;;;;;;5031925;28;20043;-83
2021/09/27 11:46:29;;;;;;;5.57;3.35;;;;;;;;;;4999888;28;20040;-85
2021/09/27 11:49:28;;;;;;;5.57;3.63;;;;;;;;;;5043818;28;20484;-83
2021/09/27 11:52:20;;;;;;;6.45;3.47;;;;;;;;;;5055073;28;20055;-84
2021/09/27 11:55:00;;;;;;;5.10;3.45;;;;;;;;;;5037228;28;20025;-83
2021/09/27 11:57:41;;;;;;;5.18;3.10;;;;;;;;;;5044797;28;20057;-85
2021/09/27 12:00:23;;;;;;;4.30;3.17;;;;;;;;;;5066659;28;20449;-84
2021/09/27 12:02:56;;;;;;;5.55;3.28;;;;;;;;;;5030969;28;20111;-85
2021/09/27 12:05:48;;;;;;;6.85;3.17;;;;;;;;;;5061391;28;20025;-85
2021/09/27 12:08:41;;;;;;;4.35;2.88;;;;;;;;;;5055331;28;20020;-85
2021/09/27 12:11:12;;;;;;;5.90;2.97;;;;;;;;;;5027337;28;20029;-85
2021/09/27 12:13:47;;;;;;;5.63;2.92;;;;;;;;;;5035169;28;20052;-85
2021/09/27 12:16:35;;;;;;;5.70;2.67;;;;;;;;;;5050805;28;20025;-81
2021/09/27 12:19:15;;;;;;;4.25;2.85;;;;;;;;;;5028691;28;20488;-83
2021/09/27 12:21:45;;;;;;;6.20;2.72;;;;;;;;;;5037203;28;20021;-82
2021/09/27 12:24:24;;;;;;;3.90;2.50;;;;;;;;;;5035067;28;20025;-84
2021/09/27 12:27:12;;;;;;;4.82;2.63;;;;;;;;;;5038497;28;20027;-84
2021/09/27 12:30:02;;;;;;;12.70;2.67;;;;;;;;;;5038032;28;20647;-83
2021/09/27 12:32:41;;;;;;;4.53;2.60;;;;;;;;;;5036634;28;20517;-84
2021/09/27 12:35:11;;;;;;;5.80;2.40;;;;;;;;;;5059698;28;20065;-85
2021/09/27 12:37:40;;;;;;;4.85;2.20;;;;;;;;;;5036205;28;20028;-83
2021/09/27 12:40:09;;;;;;;5.70;2.30;;;;;;;;;;5045545;28;20415;-82
2021/09/27 12:42:48;;;;;;;4.07;2.20;;;;;;;;;;5058265;28;20388;-83
2021/09/27 12:45:23;;;;;;;5.78;2.20;;;;;;;;;;5034902;28;20594;-84
2021/09/27 12:47:49;;;;;;;5.25;2.30;;;;;;;;;;5049620;28;20028;-83
2021/09/27 12:50:19;;;;;;;4.53;2.15;;;;;;;;;;5036967;28;20160;-84
2021/09/27 12:52:58;;;;;;;3.65;2.13;;;;;;;;;;5049203;28;20020;-83
2021/09/27 12:55:29;;;;;;;3.13;1.95;;;;;;;;;;5056313;28;20106;-83
2021/09/27 12:57:59;;;;;;;4.05;2.55;;;;;;;;;;5037607;28;20087;-83
2021/09/27 13:00:36;;;;;;;4.78;2.17;;;;;;;;;;5043255;28;20426;-83
2021/09/27 13:03:07;;;;;;;4.78;2.42;;;;;;;;;;5055844;28;20041;-84
2021/09/27 13:06:12;;;;;;;7.25;2.33;;;;;;;;;;5022314;28;20115;-84
2021/09/27 13:08:49;;;;;;;4.43;2.40;;;;;;;;;;4991687;28;20037;-84
2021/09/27 13:11:30;;;;;;;5.13;2.33;;;;;;;;;;5039043;28;20078;-84
2021/09/27 13:14:17;;;;;;;3.58;2.40;;;;;;;;;;5044577;28;20399;-84
2021/09/27 13:16:45;;;;;;;5.57;2.78;;;;;;;;;;5039978;28;20033;-84
2021/09/27 13:19:47;;;;;;;5.72;2.58;;;;;;;;;;5039205;28;20061;-84
2021/09/27 13:22:23;;;;;;;5.10;2.40;;;;;;;;;;5047313;28;20021;-84
2021/09/27 13:25:15;;;;;;;4.05;2.30;;;;;;;;;;5039386;28;20100;-85
2021/09/27 13:27:55;;;;;;;3.53;2.20;;;;;;;;;;5023672;28;20040;-84
2021/09/27 13:30:25;;;;;;;10.43;2.20;;;;;;;;;;5052338;28;20032;-84
2021/09/27 13:32:59;;;;;;;5.90;2.17;;;;;;;;;;5047132;28;20026;-84
2021/09/27 13:35:40;;;;;;;4.07;2.17;;;;;;;;;;5061395;28;20033;-83
2021/09/27 13:38:08;;;;;;;4.30;2.10;;;;;;;;;;5035945;28;20572;-84
2021/09/27 13:41:19;;;;;;;4.85;2.40;;;;;;;;;;5051923;28;20039;-84
2021/09/27 13:43:55;;;;;;;2.75;2.10;;;;;;;;;;5039826;28;20021;-85
2021/09/27 13:46:27;;;;;;;7.03;2.40;;;;;;;;;;5036024;28;20033;-83
2021/09/27 13:48:54;;;;;;;5.50;2.45;;;;;;;;;;5040046;28;20035;-84
2021/09/27 13:51:24;;;;;;;6.57;2.85;;;;;;;;;;5041255;28;20107;-84
2021/09/27 13:54:03;;;;;;;5.25;2.42;;;;;;;;;;5043557;28;20028;-84
2021/09/27 13:56:32;;;;;;;4.35;2.63;;;;;;;;;;5059318;28;20068;-81
2021/09/27 13:58:58;;;;;;;4.82;2.75;;;;;;;;;;5031676;28;20029;-82
2021/09/27 14:01:24;;;;;;;7.05;2.83;;;;;;;;;;5063312;28;20044;-82
2021/09/27 14:03:49;;;;;;;4.85;2.83;;;;;;;;;;5040585;28;20472;-81
2021/09/27 14:06:18;;;;;;;9.10;3.15;;;;;;;;;;5021416;28;20033;-82
2021/09/27 14:08:43;;;;;;;4.00;2.88;;;;;;;;;;5063196;28;20472;-83
2021/09/27 14:11:09;;;;;;;5.68;2.60;;;;;;;;;;5024550;28;20043;-82
2021/09/27 14:13:35;;;;;;;5.03;2.38;;;;;;;;;;5047573;28;20027;-80
2021/09/27 14:16:07;;;;;;;4.07;2.13;;;;;;;;;;5047504;28;20017;-82
2021/09/27 14:18:37;;;;;;;4.30;2.40;;;;;;;;;;5032407;28;20029;-81
2021/09/27 14:21:04;;;;;;;3.63;2.17;;;;;;;;;;5047370;28;20501;-82
2021/09/27 14:23:31;;;;;;;3.83;2.00;;;;;;;;;;5018359;28;20392;-82
2021/09/27 14:25:57;;;;;;;3.22;1.77;;;;;;;;;;5056146;28;20036;-83
2021/09/27 14:28:25;;;;;;;5.53;1.70;;;;;;;;;;5038574;28;20036;-81
2021/09/27 14:30:52;;;;;;;3.50;1.70;;;;;;;;;;5057664;28;20523;-82
2021/09/27 14:33:18;;;;;;;3.50;2.00;;;;;;;;;;5042236;28;20404;-82
2021/09/27 14:35:44;;;;;;;5.75;1.83;;;;;;;;;;5039443;28;20033;-80
2021/09/27 14:38:11;;;;;;;4.53;2.20;;;;;;;;;;5038014;28;20028;-83
2021/09/27 14:40:37;;;;;;;3.58;2.00;;;;;;;;;;5040710;28;20565;-83
2021/09/27 14:43:03;;;;;;;5.30;2.30;;;;;;;;;;5001497;28;20377;-82
2021/09/27 14:45:29;;;;;;;3.75;2.25;;;;;;;;;;5027011;28;20033;-80
2021/09/27 14:47:56;;;;;;;5.18;2.22;;;;;;;;;;5033116;28;20604;-84
2021/09/27 14:50:27;;;;;;;3.85;1.80;;;;;;;;;;5035592;28;20033;-81
2021/09/27 14:52:55;;;;;;;2.38;1.40;;;;;;;;;;5057845;28;20028;-84
2021/09/27 14:55:21;;;;;;;2.35;1.13;;;;;;;;;;5036087;28;20032;-84
2021/09/27 14:57:47;;;;;;;2.72;1.25;;;;;;;;;;5028239;28;20069;-81
2021/09/27 15:00:15;;;;;;;2.08;1.10;;;;;;;;;;5016483;28;20507;-80
2021/09/27 15:02:41;;;;;;;2.35;1.13;;;;;;;;;;5045166;28;20035;-80
2021/09/27 15:05:07;;;;;;;2.53;1.40;;;;;;;;;;5034393;28;20029;-82
2021/09/27 15:07:33;;;;;;;2.75;1.30;;;;;;;;;;5028917;28;20452;-80
2021/09/27 15:09:59;;;;;;;3.72;0.90;;;;;;;;;;5041631;28;20391;-80
2021/09/27 15:12:25;;;;;;;3.22;0.90;;;;;;;;;;5025423;28;20044;-82
2021/09/27 15:14:50;;;;;;;3.30;0.85;;;;;;;;;;5015923;28;20033;-80
2021/09/27 15:17:16;;;;;;;3.83;0.70;;;;;;;;;;5019997;28;20037;-82
2021/09/27 15:19:41;;;;;;;5.25;0.90;;;;;;;;;;5025445;28;20080;-83
2021/09/27 15:22:09;;;;;;;4.05;0.90;;;;;;;;;;5037007;28;20033;-80
2021/09/27 15:24:34;;;;;;;3.67;0.90;;;;;;;;;;5018439;28;20037;-80
2021/09/27 15:27:00;;;;;;;4.70;1.00;;;;;;;;;;5045786;28;20030;-80
2021/09/27 15:29:27;;;;;;;3.45;1.00;;;;;;;;;;5056745;28;20036;-80